createdAt,value
2019-01-26T00:01:11.277Z,0.79
2019-01-26T00:03:44.747Z,0.81
2019-01-26T00:06:15.826Z,0.83
2019-01-26T00:08:47.236Z,0.85
2019-01-26T00:11:18.701Z,0.88
2019-01-26T00:13:54.708Z,0.91
2019-01-26T00:16:27.699Z,0.93
2019-01-26T00:18:59.525Z,0.97
2019-01-26T00:21:32.862Z,0.99
2019-01-26T00:24:06.038Z,1.02
2019-01-26T00:26:39.529Z,1.04
2019-01-26T00:29:11.595Z,1.08
2019-01-26T00:31:42.890Z,1.09
2019-01-26T00:34:14.321Z,1.12
2019-01-26T00:36:45.578Z,1.15
2019-01-26T00:39:19.097Z,1.16
2019-01-26T00:41:50.355Z,1.17
2019-01-26T00:44:21.844Z,1.20
2019-01-26T00:46:53.543Z,1.21
2019-01-26T00:49:24.881Z,1.23
2019-01-26T00:51:56.085Z,1.23
2019-01-26T00:54:27.295Z,1.25
2019-01-26T00:56:58.655Z,1.26
2019-01-26T00:59:29.923Z,1.27
2019-01-26T01:02:01.266Z,1.27
2019-01-26T01:04:32.646Z,1.27
2019-01-26T01:07:04.087Z,1.28
2019-01-26T01:09:36.885Z,1.28
2019-01-26T01:12:09.696Z,1.29
2019-01-26T01:14:40.918Z,1.29
2019-01-26T01:17:12.256Z,1.32
2019-01-26T01:19:43.551Z,1.32
2019-01-26T01:22:14.826Z,1.35
2019-01-26T01:24:45.983Z,1.36
2019-01-26T01:27:17.207Z,1.38
2019-01-26T01:29:48.468Z,1.40
2019-01-26T01:32:19.781Z,1.41
2019-01-26T01:34:52.896Z,1.42
2019-01-26T01:37:24.225Z,1.43
2019-01-26T01:39:56.056Z,1.45
2019-01-26T01:42:30.383Z,1.46
2019-01-26T01:45:01.798Z,1.48
2019-01-26T01:47:33.191Z,1.49
2019-01-26T01:50:08.797Z,1.50
2019-01-26T01:52:40.176Z,1.53
2019-01-26T01:55:11.682Z,1.55
2019-01-26T01:57:42.918Z,1.55
2019-01-26T02:00:19.957Z,1.56
2019-01-26T02:02:51.200Z,1.57
2019-01-26T02:05:22.477Z,1.60
2019-01-26T02:07:53.685Z,1.61
2019-01-26T02:10:25.474Z,1.62
2019-01-26T02:12:56.791Z,1.64
2019-01-26T02:15:28.054Z,1.66
2019-01-26T02:17:59.301Z,1.68
2019-01-26T02:20:30.519Z,1.69
2019-01-26T02:23:01.803Z,1.69
2019-01-26T02:25:33.027Z,1.70
2019-01-26T02:28:04.442Z,1.72
2019-01-26T02:30:35.636Z,1.71
2019-01-26T02:33:08.434Z,1.72
2019-01-26T02:35:39.687Z,1.73
2019-01-26T02:38:11.069Z,1.74
2019-01-26T02:40:42.278Z,1.75
2019-01-26T02:43:13.466Z,1.77
2019-01-26T02:45:44.851Z,1.79
2019-01-26T02:48:16.166Z,1.81
2019-01-26T02:50:47.421Z,1.85
2019-01-26T02:53:18.666Z,1.88
2019-01-26T02:55:50.001Z,1.89
2019-01-26T02:58:21.562Z,1.90
2019-01-26T03:00:52.903Z,1.90
2019-01-26T03:03:24.168Z,1.92
2019-01-26T03:05:55.412Z,1.92
2019-01-26T03:08:26.729Z,1.94
2019-01-26T03:10:58.020Z,1.96
2019-01-26T03:13:29.393Z,1.99
2019-01-26T03:16:00.560Z,1.98
2019-01-26T03:18:31.842Z,2.00
2019-01-26T03:21:03.041Z,2.01
2019-01-26T03:23:34.401Z,2.02
2019-01-26T03:26:05.601Z,2.03
2019-01-26T03:28:36.855Z,2.03
2019-01-26T03:31:08.066Z,2.02
2019-01-26T03:33:39.358Z,2.00
2019-01-26T03:36:10.610Z,2.02
2019-01-26T03:38:41.794Z,2.01
2019-01-26T03:41:13.090Z,1.98
2019-01-26T03:43:44.332Z,2.02
2019-01-26T03:46:15.581Z,2.05
2019-01-26T03:48:46.873Z,2.08
2019-01-26T03:51:18.114Z,2.15
2019-01-26T03:53:49.384Z,2.20
2019-01-26T03:56:20.531Z,2.27
2019-01-26T03:58:51.867Z,2.34
2019-01-26T04:01:23.331Z,2.40
2019-01-26T04:03:54.572Z,2.47
2019-01-26T04:06:25.838Z,2.52
2019-01-26T04:08:57.104Z,2.58
2019-01-26T04:11:28.472Z,2.67
2019-01-26T04:13:59.632Z,2.73
2019-01-26T04:16:31.000Z,2.79
2019-01-26T04:19:05.251Z,2.85
2019-01-26T04:21:36.523Z,2.90
2019-01-26T04:24:07.782Z,2.97
2019-01-26T04:26:39.001Z,3.02
2019-01-26T04:29:11.458Z,3.05
2019-01-26T04:31:42.690Z,3.10
2019-01-26T04:34:13.931Z,3.15
2019-01-26T04:36:45.166Z,3.19
2019-01-26T04:39:16.345Z,3.20
2019-01-26T04:41:47.934Z,3.23
2019-01-26T04:44:19.099Z,3.27
2019-01-26T04:46:51.868Z,3.27
2019-01-26T04:49:23.170Z,3.30
2019-01-26T04:51:54.445Z,3.31
2019-01-26T04:54:25.631Z,3.32
2019-01-26T04:56:57.012Z,3.33
2019-01-26T04:59:28.286Z,3.33
2019-01-26T05:01:59.545Z,3.36
2019-01-26T05:04:30.819Z,3.37
2019-01-26T05:07:02.088Z,3.37
2019-01-26T05:09:33.317Z,3.38
2019-01-26T05:12:04.561Z,3.40
2019-01-26T05:14:35.755Z,3.40
2019-01-26T05:17:07.069Z,3.40
2019-01-26T05:19:38.298Z,3.40
2019-01-26T05:22:10.024Z,3.42
2019-01-26T05:24:44.995Z,3.43
2019-01-26T05:27:16.291Z,3.43
2019-01-26T05:29:47.473Z,3.44
2019-01-26T05:32:19.088Z,3.47
2019-01-26T05:34:50.309Z,3.49
2019-01-26T05:37:21.557Z,3.51
2019-01-26T05:39:52.757Z,3.52
2019-01-26T05:42:24.054Z,3.52
2019-01-26T05:44:55.286Z,3.55
2019-01-26T05:47:26.602Z,3.57
2019-01-26T05:49:57.859Z,3.59
2019-01-26T05:52:29.034Z,3.62
2019-01-26T05:55:00.332Z,3.64
2019-01-26T05:57:31.509Z,3.66
2019-01-26T06:00:02.730Z,3.65
2019-01-26T06:02:34.070Z,3.65
2019-01-26T06:05:05.612Z,3.71
2019-01-26T06:07:36.893Z,3.74
2019-01-26T06:10:08.181Z,3.75
2019-01-26T06:12:39.608Z,3.78
2019-01-26T06:15:11.865Z,3.78
2019-01-26T06:17:43.090Z,3.77
2019-01-26T06:20:14.398Z,3.81
2019-01-26T06:22:45.712Z,3.80
2019-01-26T06:25:17.824Z,3.82
2019-01-26T06:27:49.177Z,3.77
2019-01-26T06:30:22.697Z,3.77
2019-01-26T06:32:53.942Z,3.81
2019-01-26T06:35:25.184Z,3.80
2019-01-26T06:37:56.734Z,3.80
2019-01-26T06:40:27.915Z,3.79
2019-01-26T06:42:59.124Z,3.78
2019-01-26T06:45:30.442Z,3.80
2019-01-26T06:48:02.230Z,3.80
2019-01-26T06:50:33.671Z,3.83
2019-01-26T06:53:04.887Z,3.81
2019-01-26T06:55:37.687Z,3.86
2019-01-26T06:58:08.854Z,3.90
2019-01-26T07:00:40.041Z,3.90
2019-01-26T07:03:11.265Z,3.92
2019-01-26T07:05:53.291Z,3.94
2019-01-26T07:08:24.774Z,3.92
2019-01-26T07:10:55.946Z,3.93
2019-01-26T07:13:27.190Z,3.87
2019-01-26T07:16:00.099Z,3.94
2019-01-26T07:18:31.363Z,3.93
2019-01-26T07:21:02.634Z,3.90
2019-01-26T07:23:33.909Z,3.93
2019-01-26T07:26:05.214Z,3.93
2019-01-26T07:28:36.443Z,3.94
2019-01-26T07:31:07.637Z,3.93
2019-01-26T07:33:38.837Z,3.95
2019-01-26T07:36:10.271Z,3.97
2019-01-26T07:38:41.549Z,3.98
2019-01-26T07:41:12.793Z,4.00
2019-01-26T07:43:43.985Z,3.99
2019-01-26T07:46:15.169Z,4.03
2019-01-26T07:48:46.410Z,4.03
2019-01-26T07:51:17.706Z,4.05
2019-01-26T07:53:48.977Z,4.09
2019-01-26T07:56:20.255Z,4.12
2019-01-26T07:58:51.491Z,4.14
2019-01-26T08:01:22.756Z,4.13
2019-01-26T08:03:54.034Z,4.13
2019-01-26T08:06:25.256Z,4.13
2019-01-26T08:08:56.528Z,4.14
2019-01-26T08:11:27.723Z,4.24
2019-01-26T08:13:59.049Z,4.18
2019-01-26T08:16:30.300Z,4.23
2019-01-26T08:19:01.556Z,4.24
2019-01-26T08:21:32.760Z,4.24
2019-01-26T08:24:03.973Z,4.28
2019-01-26T08:26:35.231Z,4.30
2019-01-26T08:29:06.506Z,4.30
2019-01-26T08:31:37.683Z,4.33
2019-01-26T08:34:08.872Z,4.32
2019-01-26T08:36:40.175Z,4.33
2019-01-26T08:39:11.495Z,4.34
2019-01-26T08:41:42.800Z,4.35
2019-01-26T08:44:14.269Z,4.36
2019-01-26T08:46:45.563Z,4.34
2019-01-26T08:49:16.804Z,4.33
2019-01-26T08:51:48.122Z,4.32
2019-01-26T08:54:21.620Z,4.32
2019-01-26T08:56:52.906Z,4.35
2019-01-26T08:59:24.135Z,4.37
2019-01-26T09:02:09.544Z,4.39
2019-01-26T09:04:40.814Z,4.42
2019-01-26T09:07:14.525Z,4.48
2019-01-26T09:09:45.908Z,4.52
2019-01-26T09:12:17.627Z,4.57
2019-01-26T09:14:48.947Z,4.60
2019-01-26T09:17:20.177Z,4.64
2019-01-26T09:19:53.861Z,4.66
2019-01-26T09:22:25.092Z,4.64
2019-01-26T09:24:56.422Z,4.67
2019-01-26T09:27:27.698Z,4.68
2019-01-26T09:29:58.953Z,4.65
2019-01-26T09:32:30.193Z,4.71
2019-01-26T09:35:01.449Z,4.74
2019-01-26T09:37:32.671Z,4.75
2019-01-26T09:40:04.095Z,4.77
2019-01-26T09:42:35.320Z,4.80
2019-01-26T09:45:09.765Z,4.80
2019-01-26T09:47:41.059Z,4.83
2019-01-26T09:50:12.656Z,4.84
2019-01-26T09:52:43.979Z,4.85
2019-01-26T09:55:15.387Z,4.87
2019-01-26T09:57:46.576Z,4.89
2019-01-26T10:00:18.706Z,4.90
2019-01-26T10:02:49.944Z,4.92
2019-01-26T10:05:21.265Z,4.94
2019-01-26T10:07:52.551Z,4.96
2019-01-26T10:10:23.863Z,4.99
2019-01-26T10:12:55.058Z,5.00
2019-01-26T10:15:26.963Z,5.03
2019-01-26T10:17:58.522Z,5.06
2019-01-26T10:20:31.680Z,5.08
2019-01-26T10:23:03.203Z,5.10
2019-01-26T10:25:34.665Z,5.11
2019-01-26T10:28:06.547Z,5.12
2019-01-26T10:30:43.033Z,5.13
2019-01-26T10:33:14.556Z,5.15
2019-01-26T10:36:17.234Z,5.16
2019-01-26T10:39:01.226Z,5.19
2019-01-26T10:41:52.960Z,5.19
2019-01-26T10:44:29.376Z,5.22
2019-01-26T10:47:01.602Z,5.23
2019-01-26T10:49:33.405Z,5.24
2019-01-26T10:52:06.086Z,5.25
2019-01-26T10:54:37.561Z,5.26
2019-01-26T10:57:09.086Z,5.27
2019-01-26T10:59:40.325Z,5.27
2019-01-26T11:02:11.864Z,5.28
2019-01-26T11:04:44.303Z,5.29
2019-01-26T11:07:15.934Z,5.29
2019-01-26T11:09:48.399Z,5.30
2019-01-26T11:12:19.995Z,5.29
2019-01-26T11:14:51.244Z,5.28
2019-01-26T11:17:22.558Z,5.28
2019-01-26T11:19:53.763Z,5.30
2019-01-26T11:22:25.031Z,5.30
2019-01-26T11:24:56.279Z,5.28
2019-01-26T11:27:27.505Z,5.28
2019-01-26T11:29:58.761Z,5.27
2019-01-26T11:32:30.202Z,5.27
2019-01-26T11:35:01.401Z,5.26
2019-01-26T11:37:32.706Z,5.28
2019-01-26T11:40:11.479Z,5.28
2019-01-26T11:42:42.762Z,5.27
2019-01-26T11:45:32.096Z,5.29
2019-01-26T11:48:04.544Z,5.30
2019-01-26T11:50:41.137Z,5.30
2019-01-26T11:53:12.403Z,5.30
2019-01-26T11:56:05.357Z,5.30
2019-01-26T11:58:36.760Z,5.30
2019-01-26T12:01:29.732Z,5.30
2019-01-26T12:04:28.780Z,5.29
2019-01-26T12:07:09.453Z,5.29
2019-01-26T12:09:40.673Z,5.27
2019-01-26T12:12:12.060Z,5.27
2019-01-26T12:14:43.192Z,5.25
2019-01-26T12:17:14.423Z,5.24
2019-01-26T12:19:45.560Z,5.24
2019-01-26T12:22:16.736Z,5.24
2019-01-26T12:24:47.999Z,5.22
2019-01-26T12:27:19.182Z,5.23
2019-01-26T12:29:50.616Z,5.22
2019-01-26T12:32:21.966Z,5.22
2019-01-26T12:34:53.298Z,5.21
2019-01-26T12:37:24.620Z,5.21
2019-01-26T12:39:55.812Z,5.20
2019-01-26T12:42:27.037Z,5.20
2019-01-26T12:44:58.197Z,5.18
2019-01-26T12:47:29.463Z,5.18
2019-01-26T12:50:02.330Z,5.18
2019-01-26T12:52:33.684Z,5.16
2019-01-26T12:55:05.460Z,5.15
2019-01-26T12:57:36.657Z,5.13
2019-01-26T13:00:11.210Z,5.13
2019-01-26T13:02:42.407Z,5.13
2019-01-26T13:05:13.731Z,5.13
2019-01-26T13:07:45.087Z,5.14
2019-01-26T13:10:23.252Z,5.12
2019-01-26T13:12:54.569Z,5.13
2019-01-26T13:15:25.808Z,5.13
2019-01-26T13:17:58.072Z,5.13
2019-01-26T13:20:29.399Z,5.13
2019-01-26T13:23:00.676Z,5.13
2019-01-26T13:25:32.187Z,5.14
2019-01-26T13:28:04.980Z,5.13
2019-01-26T13:30:36.363Z,5.14
2019-01-26T13:33:09.065Z,5.15
2019-01-26T13:35:40.910Z,5.15
2019-01-26T13:38:12.229Z,5.16
2019-01-26T13:40:43.746Z,5.18
2019-01-26T13:43:15.269Z,5.18
2019-01-26T13:45:46.422Z,5.20
2019-01-26T13:48:17.980Z,5.22
2019-01-26T13:50:49.389Z,5.21
2019-01-26T13:53:20.636Z,5.23
2019-01-26T13:55:52.140Z,5.23
2019-01-26T13:58:23.513Z,5.24
2019-01-26T14:00:54.746Z,5.25
2019-01-26T14:03:25.892Z,5.26
2019-01-26T14:05:57.160Z,5.25
2019-01-26T14:08:28.446Z,5.24
2019-01-26T14:10:59.750Z,5.24
2019-01-26T14:13:30.967Z,5.24
2019-01-26T14:16:03.377Z,5.25
2019-01-26T14:18:34.633Z,5.29
2019-01-26T14:21:05.919Z,5.34
2019-01-26T14:23:37.104Z,5.37
2019-01-26T14:26:08.357Z,5.42
2019-01-26T14:28:39.702Z,5.49
2019-01-26T14:31:10.901Z,5.54
2019-01-26T14:33:42.170Z,5.60
2019-01-26T14:36:13.286Z,5.65
2019-01-26T14:38:44.508Z,5.71
2019-01-26T14:41:15.793Z,5.76
2019-01-26T14:43:47.448Z,5.79
2019-01-26T14:46:18.962Z,5.82
2019-01-26T14:48:50.288Z,5.86
2019-01-26T14:51:21.587Z,5.88
2019-01-26T14:53:52.766Z,5.93
2019-01-26T14:56:24.188Z,5.95
2019-01-26T14:58:55.630Z,5.95
2019-01-26T15:01:26.898Z,6.01
2019-01-26T15:03:59.112Z,6.02
2019-01-26T15:06:30.575Z,6.04
2019-01-26T15:09:01.887Z,6.05
2019-01-26T15:11:35.013Z,6.07
2019-01-26T15:14:06.362Z,6.08
2019-01-26T15:16:37.531Z,6.08
2019-01-26T15:19:09.891Z,6.07
2019-01-26T15:21:41.093Z,6.08
2019-01-26T15:24:12.385Z,6.06
2019-01-26T15:26:43.645Z,6.06
2019-01-26T15:29:14.822Z,6.05
2019-01-26T15:31:46.260Z,6.06
2019-01-26T15:34:17.638Z,6.05
2019-01-26T15:36:49.109Z,6.06
2019-01-26T15:39:20.535Z,6.03
2019-01-26T15:41:51.839Z,6.01
2019-01-26T15:44:23.013Z,5.96
2019-01-26T15:46:54.215Z,5.96
2019-01-26T15:49:25.581Z,5.96
2019-01-26T15:51:56.942Z,5.93
2019-01-26T15:54:29.334Z,5.93
2019-01-26T15:57:00.688Z,5.93
2019-01-26T15:59:32.033Z,5.94
2019-01-26T16:02:03.326Z,5.89
2019-01-26T16:04:34.452Z,5.91
2019-01-26T16:07:05.740Z,5.91
2019-01-26T16:09:37.017Z,5.91
2019-01-26T16:12:08.136Z,5.93
2019-01-26T16:14:39.375Z,5.95
2019-01-26T16:17:10.700Z,5.95
2019-01-26T16:19:41.957Z,5.93
2019-01-26T16:22:13.237Z,5.92
2019-01-26T16:24:44.500Z,5.91
2019-01-26T16:27:16.750Z,5.91
2019-01-26T16:29:48.053Z,5.88
2019-01-26T16:32:19.348Z,5.90
2019-01-26T16:34:50.584Z,5.90
2019-01-26T16:37:21.891Z,5.91
2019-01-26T16:39:53.960Z,5.91
2019-01-26T16:42:26.868Z,5.92
2019-01-26T16:44:58.088Z,5.91
2019-01-26T16:47:29.459Z,5.93
2019-01-26T16:50:00.759Z,5.91
2019-01-26T16:52:33.649Z,5.93
2019-01-26T16:55:05.698Z,5.95
2019-01-26T16:57:37.474Z,5.98
2019-01-26T17:00:22.880Z,6.01
2019-01-26T17:02:54.116Z,6.04
2019-01-26T17:05:25.892Z,6.04
2019-01-26T17:07:57.395Z,6.02
2019-01-26T17:10:34.219Z,6.03
2019-01-26T17:13:04.946Z,6.04
2019-01-26T17:15:36.350Z,6.03
2019-01-26T17:18:13.670Z,6.01
2019-01-26T17:20:42.064Z,6.03
2019-01-26T17:23:13.298Z,6.04
2019-01-26T17:25:44.552Z,6.05
2019-01-26T17:28:16.041Z,6.07
2019-01-26T17:30:47.477Z,6.10
2019-01-26T17:33:18.802Z,6.08
2019-01-26T17:35:50.048Z,6.09
2019-01-26T17:38:21.484Z,6.08
2019-01-26T17:40:54.479Z,6.06
2019-01-26T17:43:25.572Z,6.05
2019-01-26T17:45:56.842Z,6.04
2019-01-26T17:48:28.062Z,6.03
2019-01-26T17:50:59.290Z,6.02
2019-01-26T17:53:30.506Z,6.03
2019-01-26T17:56:01.740Z,6.03
2019-01-26T17:58:33.066Z,6.04
2019-01-26T18:01:04.484Z,6.07
2019-01-26T18:03:37.047Z,6.08
2019-01-26T18:06:08.722Z,6.07
2019-01-26T18:08:40.012Z,6.09
2019-01-26T18:11:11.391Z,6.09
2019-01-26T18:13:42.769Z,6.12
2019-01-26T18:16:14.068Z,6.13
2019-01-26T18:18:45.512Z,6.17
2019-01-26T18:21:16.795Z,6.15
2019-01-26T18:23:48.060Z,6.20
2019-01-26T18:26:19.374Z,6.21
2019-01-26T18:28:50.759Z,6.24
2019-01-26T18:31:21.919Z,6.26
2019-01-26T18:33:53.231Z,6.28
2019-01-26T18:36:24.527Z,6.29
2019-01-26T18:38:55.802Z,6.33
2019-01-26T18:41:27.217Z,6.36
2019-01-26T18:43:59.666Z,6.37
2019-01-26T18:46:30.867Z,6.40
2019-01-26T18:49:02.025Z,6.41
2019-01-26T18:51:34.330Z,6.42
2019-01-26T18:54:05.726Z,6.43
2019-01-26T18:56:37.003Z,6.45
2019-01-26T18:59:08.336Z,6.44
2019-01-26T19:01:39.546Z,6.46
2019-01-26T19:04:19.579Z,6.47
2019-01-26T19:06:50.796Z,6.47
2019-01-26T19:09:22.556Z,6.47
2019-01-26T19:11:54.076Z,6.44
2019-01-26T19:14:25.450Z,6.42
2019-01-26T19:16:57.036Z,6.42
2019-01-26T19:19:28.804Z,6.42
2019-01-26T19:22:00.497Z,6.41
2019-01-26T19:24:31.739Z,6.40
2019-01-26T19:27:04.353Z,6.39
2019-01-26T19:29:40.431Z,6.39
2019-01-26T19:32:23.911Z,6.40
2019-01-26T19:34:55.161Z,6.38
2019-01-26T19:37:26.507Z,6.38
2019-01-26T19:42:56.564Z,6.36
2019-01-26T19:45:50.702Z,6.36
2019-01-26T19:48:47.684Z,6.38
2019-01-26T19:51:24.003Z,6.37
2019-01-26T19:53:58.265Z,6.37
2019-01-26T19:56:38.760Z,6.37
2019-01-26T19:59:18.851Z,6.39
2019-01-26T20:01:53.100Z,6.39
2019-01-26T20:04:24.283Z,6.42
2019-01-26T20:06:56.004Z,6.43
2019-01-26T20:09:27.161Z,6.46
2019-01-26T20:11:58.953Z,6.47
2019-01-26T20:14:30.308Z,6.48
2019-01-26T20:17:01.591Z,6.49
2019-01-26T20:19:32.812Z,6.49
2019-01-26T20:22:04.111Z,6.52
2019-01-26T20:24:35.366Z,6.54
2019-01-26T20:27:06.735Z,6.56
2019-01-26T20:29:38.033Z,6.58
2019-01-26T20:32:09.442Z,6.59
2019-01-26T20:34:40.676Z,6.60
2019-01-26T20:37:11.979Z,6.60
2019-01-26T20:39:43.246Z,6.59
2019-01-26T20:42:14.498Z,6.59
2019-01-26T20:44:45.665Z,6.59
2019-01-26T20:47:16.966Z,6.58
2019-01-26T20:49:48.182Z,6.58
2019-01-26T20:52:19.643Z,6.57
2019-01-26T20:54:51.002Z,6.55
2019-01-26T20:57:22.330Z,6.55
2019-01-26T20:59:53.671Z,6.54
2019-01-26T21:02:24.974Z,6.51
2019-01-26T21:04:56.353Z,6.51
2019-01-26T21:07:27.843Z,6.50
2019-01-26T21:09:59.464Z,6.47
2019-01-26T21:12:30.847Z,6.45
2019-01-26T21:15:04.849Z,6.44
2019-01-26T21:17:35.144Z,6.40
2019-01-26T21:20:07.812Z,6.39
2019-01-26T21:22:40.023Z,6.37
2019-01-26T21:25:11.786Z,6.34
2019-01-26T21:27:43.962Z,6.30
2019-01-26T21:30:18.245Z,6.28
2019-01-26T21:32:49.541Z,6.25
2019-01-26T21:35:20.760Z,6.23
2019-01-26T21:37:52.023Z,6.21
2019-01-26T21:40:25.323Z,6.18
2019-01-26T21:42:57.849Z,6.17
2019-01-26T21:45:29.181Z,6.15
2019-01-26T21:48:00.747Z,6.14
2019-01-26T21:50:32.222Z,6.12
2019-01-26T21:53:03.894Z,6.11
2019-01-26T21:55:35.327Z,6.08
2019-01-26T21:58:06.702Z,6.08
2019-01-26T22:00:38.114Z,6.05
2019-01-26T22:03:09.428Z,6.04
2019-01-26T22:05:40.612Z,6.02
2019-01-26T22:08:11.974Z,6.01
2019-01-26T22:10:43.250Z,5.99
2019-01-26T22:13:14.517Z,5.98
2019-01-26T22:15:45.871Z,5.98
2019-01-26T22:18:17.225Z,5.99
2019-01-26T22:20:48.421Z,5.98
2019-01-26T22:23:19.774Z,5.98
2019-01-26T22:25:51.140Z,5.96
2019-01-26T22:28:22.322Z,5.94
2019-01-26T22:30:53.726Z,5.93
2019-01-26T22:33:25.124Z,5.90
2019-01-26T22:35:56.387Z,5.87
2019-01-26T22:38:27.795Z,5.85
2019-01-26T22:40:59.100Z,5.84
2019-01-26T22:43:30.449Z,5.82
2019-01-26T22:46:01.957Z,5.79
2019-01-26T22:48:33.276Z,5.75
2019-01-26T22:51:04.682Z,5.73
2019-01-26T22:53:35.977Z,5.73
2019-01-26T22:56:07.351Z,5.71
2019-01-26T22:58:38.615Z,5.70
2019-01-26T23:01:28.984Z,5.67
2019-01-26T23:04:22.155Z,5.67
2019-01-26T23:07:08.266Z,5.67
2019-01-26T23:10:07.410Z,5.67
2019-01-26T23:13:02.615Z,5.67
2019-01-26T23:16:16.099Z,5.70
2019-01-26T23:19:17.919Z,5.72
2019-01-26T23:22:05.844Z,5.74
2019-01-26T23:25:17.026Z,5.77
2019-01-26T23:28:24.846Z,5.80
2019-01-26T23:31:16.907Z,5.81
2019-01-26T23:33:52.268Z,5.83
2019-01-26T23:36:23.671Z,5.84
2019-01-26T23:38:54.822Z,5.86
2019-01-26T23:41:26.078Z,5.87
2019-01-26T23:43:57.250Z,5.88
2019-01-26T23:46:28.494Z,5.88
2019-01-26T23:48:59.783Z,5.88
2019-01-26T23:51:30.986Z,5.90
2019-01-26T23:54:02.223Z,5.91
2019-01-26T23:56:33.408Z,5.93
2019-01-26T23:59:04.718Z,5.94
